sensor_id;sensor_type;location;lat;lon;timestamp;temperature;humidity
46730;DHT22;32476;50.002;11.854;2024-01-30T00:01:06;-0.20;99.90
46730;DHT22;32476;50.002;11.854;2024-01-30T00:03:33;-0.30;99.90
46730;DHT22;32476;50.002;11.854;2024-01-30T00:05:59;-0.40;99.90
46730;DHT22;32476;50.002;11.854;2024-01-30T00:08:26;-0.50;99.90
46730;DHT22;32476;50.002;11.854;2024-01-30T00:10:53;-0.50;99.90
46730;DHT22;32476;50.002;11.854;2024-01-30T00:13:19;-0.60;99.90
46730;DHT22;32476;50.002;11.854;2024-01-30T00:15:46;-0.60;99.90
46730;DHT22;32476;50.002;11.854;2024-01-30T00:18:13;-0.60;99.90
46730;DHT22;32476;50.002;11.854;2024-01-30T00:20:39;-0.70;99.90
46730;DHT22;32476;50.002;11.854;2024-01-30T00:23:05;-0.60;99.90
46730;DHT22;32476;50.002;11.854;2024-01-30T00:25:32;-0.70;99.90
46730;DHT22;32476;50.002;11.854;2024-01-30T00:27:59;-0.60;99.90
46730;DHT22;32476;50.002;11.854;2024-01-30T00:30:25;-0.70;99.90
46730;DHT22;32476;50.002;11.854;2024-01-30T00:32:53;-0.60;99.90
46730;DHT22;32476;50.002;11.854;2024-01-30T00:35:20;-0.70;99.90
46730;DHT22;32476;50.002;11.854;2024-01-30T00:37:48;-0.70;99.90
46730;DHT22;32476;50.002;11.854;2024-01-30T00:40:16;-0.70;99.90
46730;DHT22;32476;50.002;11.854;2024-01-30T00:42:43;-0.60;99.90
46730;DHT22;32476;50.002;11.854;2024-01-30T00:45:15;-0.50;99.90
46730;DHT22;32476;50.002;11.854;2024-01-30T00:47:44;-0.50;99.90
46730;DHT22;32476;50.002;11.854;2024-01-30T00:50:11;-0.50;99.90
46730;DHT22;32476;50.002;11.854;2024-01-30T00:52:37;-0.50;99.90
46730;DHT22;32476;50.002;11.854;2024-01-30T00:55:06;-0.50;99.90
46730;DHT22;32476;50.002;11.854;2024-01-30T00:57:32;-0.60;99.90
46730;DHT22;32476;50.002;11.854;2024-01-30T00:59:58;-0.50;99.90
46730;DHT22;32476;50.002;11.854;2024-01-30T01:02:25;-0.50;99.90
46730;DHT22;32476;50.002;11.854;2024-01-30T01:04:51;-0.40;99.90
46730;DHT22;32476;50.002;11.854;2024-01-30T01:07:17;-0.30;99.90
46730;DHT22;32476;50.002;11.854;2024-01-30T01:09:45;-0.20;99.90
46730;DHT22;32476;50.002;11.854;2024-01-30T01:12:10;-0.10;99.90
46730;DHT22;32476;50.002;11.854;2024-01-30T01:14:36;0.00;99.90
46730;DHT22;32476;50.002;11.854;2024-01-30T01:17:04;0.00;99.90
46730;DHT22;32476;50.002;11.854;2024-01-30T01:19:30;-0.10;99.90
46730;DHT22;32476;50.002;11.854;2024-01-30T01:21:57;-0.10;99.90
46730;DHT22;32476;50.002;11.854;2024-01-30T01:24:24;-0.10;99.90
46730;DHT22;32476;50.002;11.854;2024-01-30T01:26:50;-0.20;99.90
46730;DHT22;32476;50.002;11.854;2024-01-30T01:29:16;-0.30;99.90
46730;DHT22;32476;50.002;11.854;2024-01-30T01:31:43;-0.20;99.90
46730;DHT22;32476;50.002;11.854;2024-01-30T01:34:13;-0.10;99.90
46730;DHT22;32476;50.002;11.854;2024-01-30T01:36:39;-0.20;99.90
46730;DHT22;32476;50.002;11.854;2024-01-30T01:39:07;-0.10;99.90
46730;DHT22;32476;50.002;11.854;2024-01-30T01:41:34;-0.20;99.90
46730;DHT22;32476;50.002;11.854;2024-01-30T01:44:00;-0.20;99.90
46730;DHT22;32476;50.002;11.854;2024-01-30T01:46:30;-0.20;99.90
46730;DHT22;32476;50.002;11.854;2024-01-30T01:48:58;-0.20;99.90
46730;DHT22;32476;50.002;11.854;2024-01-30T01:51:27;-0.20;99.90
46730;DHT22;32476;50.002;11.854;2024-01-30T01:53:55;-0.30;99.90
46730;DHT22;32476;50.002;11.854;2024-01-30T01:56:23;-0.50;99.90
46730;DHT22;32476;50.002;11.854;2024-01-30T01:58:49;-0.50;99.90
46730;DHT22;32476;50.002;11.854;2024-01-30T02:01:19;-0.50;99.90
46730;DHT22;32476;50.002;11.854;2024-01-30T02:03:46;-0.50;99.90
46730;DHT22;32476;50.002;11.854;2024-01-30T02:06:16;-0.50;99.90
46730;DHT22;32476;50.002;11.854;2024-01-30T02:08:43;-0.50;99.90
46730;DHT22;32476;50.002;11.854;2024-01-30T02:11:10;-0.50;99.90
46730;DHT22;32476;50.002;11.854;2024-01-30T02:13:36;-0.50;99.90
46730;DHT22;32476;50.002;11.854;2024-01-30T02:16:04;-0.50;99.90
46730;DHT22;32476;50.002;11.854;2024-01-30T02:18:30;-0.50;99.90
46730;DHT22;32476;50.002;11.854;2024-01-30T02:20:58;-0.50;99.90
46730;DHT22;32476;50.002;11.854;2024-01-30T02:23:29;-0.50;99.90
46730;DHT22;32476;50.002;11.854;2024-01-30T02:25:56;-0.50;99.90
46730;DHT22;32476;50.002;11.854;2024-01-30T02:28:22;-0.50;99.90
46730;DHT22;32476;50.002;11.854;2024-01-30T02:30:49;-0.70;99.90
46730;DHT22;32476;50.002;11.854;2024-01-30T02:33:15;-0.70;99.90
46730;DHT22;32476;50.002;11.854;2024-01-30T02:35:41;-0.80;99.90
46730;DHT22;32476;50.002;11.854;2024-01-30T02:38:08;-0.90;99.90
46730;DHT22;32476;50.002;11.854;2024-01-30T02:40:35;-0.80;99.90
46730;DHT22;32476;50.002;11.854;2024-01-30T02:43:02;-0.70;99.90
46730;DHT22;32476;50.002;11.854;2024-01-30T02:45:30;-0.70;99.90
46730;DHT22;32476;50.002;11.854;2024-01-30T02:47:56;-0.70;99.90
46730;DHT22;32476;50.002;11.854;2024-01-30T02:50:22;-0.80;99.90
46730;DHT22;32476;50.002;11.854;2024-01-30T02:52:49;-0.70;99.90
46730;DHT22;32476;50.002;11.854;2024-01-30T02:55:15;-0.80;99.90
46730;DHT22;32476;50.002;11.854;2024-01-30T02:57:43;-0.70;99.90
46730;DHT22;32476;50.002;11.854;2024-01-30T03:00:11;-0.80;99.90
46730;DHT22;32476;50.002;11.854;2024-01-30T03:02:38;-0.90;99.90
46730;DHT22;32476;50.002;11.854;2024-01-30T03:05:05;-0.90;99.90
46730;DHT22;32476;50.002;11.854;2024-01-30T03:07:33;-0.70;99.90
46730;DHT22;32476;50.002;11.854;2024-01-30T03:09:59;-0.70;99.90
46730;DHT22;32476;50.002;11.854;2024-01-30T03:12:26;-0.80;99.90
46730;DHT22;32476;50.002;11.854;2024-01-30T03:14:53;-0.90;99.90
46730;DHT22;32476;50.002;11.854;2024-01-30T03:17:19;-0.90;99.90
46730;DHT22;32476;50.002;11.854;2024-01-30T03:19:45;-0.90;99.90
46730;DHT22;32476;50.002;11.854;2024-01-30T03:22:13;-0.90;99.90
46730;DHT22;32476;50.002;11.854;2024-01-30T03:24:39;-0.90;99.90
46730;DHT22;32476;50.002;11.854;2024-01-30T03:27:05;-1.00;99.90
46730;DHT22;32476;50.002;11.854;2024-01-30T03:29:32;-1.00;99.90
46730;DHT22;32476;50.002;11.854;2024-01-30T03:31:58;-1.00;99.90
46730;DHT22;32476;50.002;11.854;2024-01-30T03:34:24;-1.00;99.90
46730;DHT22;32476;50.002;11.854;2024-01-30T03:36:52;-1.00;99.90
46730;DHT22;32476;50.002;11.854;2024-01-30T03:39:17;-1.00;99.90
46730;DHT22;32476;50.002;11.854;2024-01-30T03:41:43;-0.90;99.90
46730;DHT22;32476;50.002;11.854;2024-01-30T03:44:11;-1.00;99.90
46730;DHT22;32476;50.002;11.854;2024-01-30T03:46:37;-0.90;99.90
46730;DHT22;32476;50.002;11.854;2024-01-30T03:49:03;-0.90;99.90
46730;DHT22;32476;50.002;11.854;2024-01-30T03:51:30;-1.00;99.90
46730;DHT22;32476;50.002;11.854;2024-01-30T03:53:56;-0.90;99.90
46730;DHT22;32476;50.002;11.854;2024-01-30T03:56:22;-1.00;99.90
46730;DHT22;32476;50.002;11.854;2024-01-30T03:58:51;-1.00;99.90
46730;DHT22;32476;50.002;11.854;2024-01-30T04:01:17;-1.00;99.90
46730;DHT22;32476;50.002;11.854;2024-01-30T04:03:43;-0.70;99.90
46730;DHT22;32476;50.002;11.854;2024-01-30T04:06:11;-0.70;99.90
46730;DHT22;32476;50.002;11.854;2024-01-30T04:08:37;-0.70;99.90
46730;DHT22;32476;50.002;11.854;2024-01-30T04:11:04;-0.70;99.90
46730;DHT22;32476;50.002;11.854;2024-01-30T04:13:33;-0.80;99.90
46730;DHT22;32476;50.002;11.854;2024-01-30T04:16:00;-0.70;99.90
46730;DHT22;32476;50.002;11.854;2024-01-30T04:18:29;-0.70;99.90
46730;DHT22;32476;50.002;11.854;2024-01-30T04:20:57;-0.60;99.90
46730;DHT22;32476;50.002;11.854;2024-01-30T04:23:23;-0.60;99.90
46730;DHT22;32476;50.002;11.854;2024-01-30T04:25:49;-0.60;99.90
46730;DHT22;32476;50.002;11.854;2024-01-30T04:28:16;-0.50;99.90
46730;DHT22;32476;50.002;11.854;2024-01-30T04:30:42;-0.50;99.90
46730;DHT22;32476;50.002;11.854;2024-01-30T04:33:08;-0.60;99.90
46730;DHT22;32476;50.002;11.854;2024-01-30T04:35:36;-0.50;99.90
46730;DHT22;32476;50.002;11.854;2024-01-30T04:38:02;-0.70;99.90
46730;DHT22;32476;50.002;11.854;2024-01-30T04:40:28;-0.60;99.90
46730;DHT22;32476;50.002;11.854;2024-01-30T04:42:55;-0.70;99.90
46730;DHT22;32476;50.002;11.854;2024-01-30T04:45:21;-0.60;99.90
46730;DHT22;32476;50.002;11.854;2024-01-30T04:47:47;-0.50;99.90
46730;DHT22;32476;50.002;11.854;2024-01-30T04:50:14;-0.50;99.90
46730;DHT22;32476;50.002;11.854;2024-01-30T04:52:40;-0.40;99.90
46730;DHT22;32476;50.002;11.854;2024-01-30T04:55:06;-0.40;99.90
46730;DHT22;32476;50.002;11.854;2024-01-30T04:57:34;-0.60;99.90
46730;DHT22;32476;50.002;11.854;2024-01-30T05:00:00;-0.60;99.90
46730;DHT22;32476;50.002;11.854;2024-01-30T05:02:27;-0.60;99.90
46730;DHT22;32476;50.002;11.854;2024-01-30T05:04:54;-0.80;99.90
46730;DHT22;32476;50.002;11.854;2024-01-30T05:07:20;-0.70;99.90
46730;DHT22;32476;50.002;11.854;2024-01-30T05:09:46;-0.70;99.90
46730;DHT22;32476;50.002;11.854;2024-01-30T05:12:14;-0.60;99.90
46730;DHT22;32476;50.002;11.854;2024-01-30T05:14:40;-0.70;99.90
46730;DHT22;32476;50.002;11.854;2024-01-30T05:17:06;-0.80;99.90
46730;DHT22;32476;50.002;11.854;2024-01-30T05:19:34;-0.90;99.90
46730;DHT22;32476;50.002;11.854;2024-01-30T05:22:00;-0.90;99.90
46730;DHT22;32476;50.002;11.854;2024-01-30T05:24:26;-0.80;99.90
46730;DHT22;32476;50.002;11.854;2024-01-30T05:26:54;-0.60;99.90
46730;DHT22;32476;50.002;11.854;2024-01-30T05:29:19;-0.50;99.90
46730;DHT22;32476;50.002;11.854;2024-01-30T05:31:45;-0.60;99.90
46730;DHT22;32476;50.002;11.854;2024-01-30T05:34:13;-0.60;99.90
46730;DHT22;32476;50.002;11.854;2024-01-30T05:36:39;-0.70;99.90
46730;DHT22;32476;50.002;11.854;2024-01-30T05:39:05;-0.70;99.90
46730;DHT22;32476;50.002;11.854;2024-01-30T05:41:32;-0.70;99.90
46730;DHT22;32476;50.002;11.854;2024-01-30T05:43:58;-0.60;99.90
46730;DHT22;32476;50.002;11.854;2024-01-30T05:46:24;-0.50;99.90
46730;DHT22;32476;50.002;11.854;2024-01-30T05:48:52;-0.50;99.90
46730;DHT22;32476;50.002;11.854;2024-01-30T05:51:18;-0.50;99.90
46730;DHT22;32476;50.002;11.854;2024-01-30T05:53:44;-0.40;99.90
46730;DHT22;32476;50.002;11.854;2024-01-30T05:56:11;-0.40;99.90
46730;DHT22;32476;50.002;11.854;2024-01-30T05:58:37;-0.40;99.90
46730;DHT22;32476;50.002;11.854;2024-01-30T06:01:07;-0.40;99.90
46730;DHT22;32476;50.002;11.854;2024-01-30T06:03:35;-0.30;99.90
46730;DHT22;32476;50.002;11.854;2024-01-30T06:06:01;-0.30;99.90
46730;DHT22;32476;50.002;11.854;2024-01-30T06:08:27;-0.30;99.90
46730;DHT22;32476;50.002;11.854;2024-01-30T06:10:55;-0.20;99.90
46730;DHT22;32476;50.002;11.854;2024-01-30T06:13:21;-0.30;99.90
46730;DHT22;32476;50.002;11.854;2024-01-30T06:15:47;-0.50;99.90
46730;DHT22;32476;50.002;11.854;2024-01-30T06:18:14;-0.70;99.90
46730;DHT22;32476;50.002;11.854;2024-01-30T06:20:40;-0.80;99.90
46730;DHT22;32476;50.002;11.854;2024-01-30T06:23:06;-1.00;99.90
46730;DHT22;32476;50.002;11.854;2024-01-30T06:25:34;-1.00;99.90
46730;DHT22;32476;50.002;11.854;2024-01-30T06:28:00;-1.00;99.90
46730;DHT22;32476;50.002;11.854;2024-01-30T06:30:26;-1.00;99.90
46730;DHT22;32476;50.002;11.854;2024-01-30T06:32:53;-0.80;99.90
46730;DHT22;32476;50.002;11.854;2024-01-30T06:35:19;-0.90;99.90
46730;DHT22;32476;50.002;11.854;2024-01-30T06:37:45;-0.90;99.90
46730;DHT22;32476;50.002;11.854;2024-01-30T06:40:13;-0.90;99.90
46730;DHT22;32476;50.002;11.854;2024-01-30T06:42:39;-0.80;99.90
46730;DHT22;32476;50.002;11.854;2024-01-30T06:45:06;-0.80;99.90
46730;DHT22;32476;50.002;11.854;2024-01-30T06:47:35;-0.80;99.90
46730;DHT22;32476;50.002;11.854;2024-01-30T06:50:01;-0.70;99.90
46730;DHT22;32476;50.002;11.854;2024-01-30T06:52:27;-0.50;99.90
46730;DHT22;32476;50.002;11.854;2024-01-30T06:54:55;-0.60;99.90
46730;DHT22;32476;50.002;11.854;2024-01-30T06:57:21;-0.70;99.90
46730;DHT22;32476;50.002;11.854;2024-01-30T06:59:47;-0.70;99.90
46730;DHT22;32476;50.002;11.854;2024-01-30T07:02:14;-0.60;99.90
46730;DHT22;32476;50.002;11.854;2024-01-30T07:04:40;-0.60;99.90
46730;DHT22;32476;50.002;11.854;2024-01-30T07:07:07;-0.50;99.90
46730;DHT22;32476;50.002;11.854;2024-01-30T07:09:39;-0.50;99.90
46730;DHT22;32476;50.002;11.854;2024-01-30T07:12:05;-0.40;99.90
46730;DHT22;32476;50.002;11.854;2024-01-30T07:14:31;-0.40;99.90
46730;DHT22;32476;50.002;11.854;2024-01-30T07:16:59;-0.40;99.90
46730;DHT22;32476;50.002;11.854;2024-01-30T07:19:25;-0.40;99.90
46730;DHT22;32476;50.002;11.854;2024-01-30T07:21:51;-0.40;99.90
46730;DHT22;32476;50.002;11.854;2024-01-30T07:24:18;-0.30;99.90
46730;DHT22;32476;50.002;11.854;2024-01-30T07:26:44;-0.20;99.90
46730;DHT22;32476;50.002;11.854;2024-01-30T07:29:10;-0.20;99.90
46730;DHT22;32476;50.002;11.854;2024-01-30T07:31:38;-0.20;99.90
46730;DHT22;32476;50.002;11.854;2024-01-30T07:34:03;-0.20;99.90
46730;DHT22;32476;50.002;11.854;2024-01-30T07:36:29;-0.20;99.90
46730;DHT22;32476;50.002;11.854;2024-01-30T07:38:57;-0.10;99.90
46730;DHT22;32476;50.002;11.854;2024-01-30T07:41:23;-0.10;99.90
46730;DHT22;32476;50.002;11.854;2024-01-30T07:43:50;-0.10;99.90
46730;DHT22;32476;50.002;11.854;2024-01-30T07:46:18;0.00;99.90
46730;DHT22;32476;50.002;11.854;2024-01-30T07:48:44;0.10;99.90
46730;DHT22;32476;50.002;11.854;2024-01-30T07:51:10;0.20;99.90
46730;DHT22;32476;50.002;11.854;2024-01-30T07:53:38;0.30;99.90
46730;DHT22;32476;50.002;11.854;2024-01-30T07:56:05;0.50;99.90
46730;DHT22;32476;50.002;11.854;2024-01-30T07:58:32;0.60;99.90
46730;DHT22;32476;50.002;11.854;2024-01-30T08:01:00;0.70;99.90
46730;DHT22;32476;50.002;11.854;2024-01-30T08:03:26;0.70;99.90
46730;DHT22;32476;50.002;11.854;2024-01-30T08:05:52;0.70;99.90
46730;DHT22;32476;50.002;11.854;2024-01-30T08:08:19;0.80;99.90
46730;DHT22;32476;50.002;11.854;2024-01-30T08:10:45;0.90;99.90
46730;DHT22;32476;50.002;11.854;2024-01-30T08:13:11;1.00;99.90
46730;DHT22;32476;50.002;11.854;2024-01-30T08:15:39;1.10;99.90
46730;DHT22;32476;50.002;11.854;2024-01-30T08:18:05;1.20;99.90
46730;DHT22;32476;50.002;11.854;2024-01-30T08:20:32;1.20;99.90
46730;DHT22;32476;50.002;11.854;2024-01-30T08:23:00;1.20;99.90
46730;DHT22;32476;50.002;11.854;2024-01-30T08:25:26;1.30;99.90
46730;DHT22;32476;50.002;11.854;2024-01-30T08:27:53;1.30;99.90
46730;DHT22;32476;50.002;11.854;2024-01-30T08:30:20;1.30;99.90
46730;DHT22;32476;50.002;11.854;2024-01-30T08:32:46;1.40;99.90
46730;DHT22;32476;50.002;11.854;2024-01-30T08:35:12;1.40;99.90
46730;DHT22;32476;50.002;11.854;2024-01-30T08:37:42;1.50;99.90
46730;DHT22;32476;50.002;11.854;2024-01-30T08:40:08;1.60;99.90
46730;DHT22;32476;50.002;11.854;2024-01-30T08:42:34;1.70;99.90
46730;DHT22;32476;50.002;11.854;2024-01-30T08:45:02;1.70;99.90
46730;DHT22;32476;50.002;11.854;2024-01-30T08:47:30;1.90;99.90
46730;DHT22;32476;50.002;11.854;2024-01-30T08:49:56;2.00;99.90
46730;DHT22;32476;50.002;11.854;2024-01-30T08:52:24;2.10;99.90
46730;DHT22;32476;50.002;11.854;2024-01-30T08:54:50;2.20;99.90
46730;DHT22;32476;50.002;11.854;2024-01-30T08:57:16;2.30;99.90
46730;DHT22;32476;50.002;11.854;2024-01-30T08:59:43;2.40;99.90
46730;DHT22;32476;50.002;11.854;2024-01-30T09:02:11;2.50;99.90
46730;DHT22;32476;50.002;11.854;2024-01-30T09:04:39;2.60;99.90
46730;DHT22;32476;50.002;11.854;2024-01-30T09:07:06;2.60;99.90
46730;DHT22;32476;50.002;11.854;2024-01-30T09:09:34;2.70;99.90
46730;DHT22;32476;50.002;11.854;2024-01-30T09:12:00;2.80;99.90
46730;DHT22;32476;50.002;11.854;2024-01-30T09:14:31;3.00;99.90
46730;DHT22;32476;50.002;11.854;2024-01-30T09:17:00;3.00;99.90
46730;DHT22;32476;50.002;11.854;2024-01-30T09:19:26;3.20;99.90
46730;DHT22;32476;50.002;11.854;2024-01-30T09:21:54;3.40;99.90
46730;DHT22;32476;50.002;11.854;2024-01-30T09:24:20;3.30;99.90
46730;DHT22;32476;50.002;11.854;2024-01-30T09:26:46;3.40;99.90
46730;DHT22;32476;50.002;11.854;2024-01-30T09:29:13;3.50;99.90
46730;DHT22;32476;50.002;11.854;2024-01-30T09:31:39;3.50;99.90
46730;DHT22;32476;50.002;11.854;2024-01-30T09:34:09;3.60;99.90
46730;DHT22;32476;50.002;11.854;2024-01-30T09:36:36;3.80;99.90
46730;DHT22;32476;50.002;11.854;2024-01-30T09:39:02;3.90;99.90
46730;DHT22;32476;50.002;11.854;2024-01-30T09:41:32;4.00;99.90
46730;DHT22;32476;50.002;11.854;2024-01-30T09:44:01;4.10;99.90
46730;DHT22;32476;50.002;11.854;2024-01-30T09:46:31;4.10;99.90
46730;DHT22;32476;50.002;11.854;2024-01-30T09:48:58;4.20;99.90
46730;DHT22;32476;50.002;11.854;2024-01-30T09:51:26;4.40;99.90
46730;DHT22;32476;50.002;11.854;2024-01-30T09:53:54;4.50;99.90
46730;DHT22;32476;50.002;11.854;2024-01-30T09:56:21;4.60;99.90
46730;DHT22;32476;50.002;11.854;2024-01-30T09:58:49;4.60;99.90
46730;DHT22;32476;50.002;11.854;2024-01-30T10:01:15;4.70;99.90
46730;DHT22;32476;50.002;11.854;2024-01-30T10:03:44;4.70;99.90
46730;DHT22;32476;50.002;11.854;2024-01-30T10:06:13;4.80;99.90
46730;DHT22;32476;50.002;11.854;2024-01-30T10:08:39;4.80;99.90
46730;DHT22;32476;50.002;11.854;2024-01-30T10:11:05;4.80;99.90
46730;DHT22;32476;50.002;11.854;2024-01-30T10:13:33;4.90;99.90
46730;DHT22;32476;50.002;11.854;2024-01-30T10:15:59;5.00;99.90
46730;DHT22;32476;50.002;11.854;2024-01-30T10:18:27;5.10;99.90
46730;DHT22;32476;50.002;11.854;2024-01-30T10:20:55;5.10;99.90
46730;DHT22;32476;50.002;11.854;2024-01-30T10:23:21;5.20;99.90
46730;DHT22;32476;50.002;11.854;2024-01-30T10:25:47;5.20;99.90
46730;DHT22;32476;50.002;11.854;2024-01-30T10:28:14;5.20;99.90
46730;DHT22;32476;50.002;11.854;2024-01-30T10:30:40;5.20;99.90
46730;DHT22;32476;50.002;11.854;2024-01-30T10:33:06;5.20;99.90
46730;DHT22;32476;50.002;11.854;2024-01-30T10:35:34;5.10;99.90
46730;DHT22;32476;50.002;11.854;2024-01-30T10:38:01;5.10;99.90
46730;DHT22;32476;50.002;11.854;2024-01-30T10:40:31;5.10;99.90
46730;DHT22;32476;50.002;11.854;2024-01-30T10:43:01;5.10;99.90
46730;DHT22;32476;50.002;11.854;2024-01-30T10:45:28;5.10;99.90
46730;DHT22;32476;50.002;11.854;2024-01-30T10:47:55;5.10;99.90
46730;DHT22;32476;50.002;11.854;2024-01-30T10:50:25;5.20;99.90
46730;DHT22;32476;50.002;11.854;2024-01-30T10:52:53;5.10;99.90
46730;DHT22;32476;50.002;11.854;2024-01-30T10:55:21;5.10;99.90
46730;DHT22;32476;50.002;11.854;2024-01-30T10:57:51;5.10;99.90
46730;DHT22;32476;50.002;11.854;2024-01-30T11:00:17;5.10;99.90
46730;DHT22;32476;50.002;11.854;2024-01-30T11:02:48;5.20;99.90
46730;DHT22;32476;50.002;11.854;2024-01-30T11:05:23;5.20;99.90
46730;DHT22;32476;50.002;11.854;2024-01-30T11:07:52;5.20;99.90
46730;DHT22;32476;50.002;11.854;2024-01-30T11:10:19;5.20;99.90
46730;DHT22;32476;50.002;11.854;2024-01-30T11:12:46;5.30;99.90
46730;DHT22;32476;50.002;11.854;2024-01-30T11:15:16;5.30;99.90
46730;DHT22;32476;50.002;11.854;2024-01-30T11:17:51;5.20;99.90
46730;DHT22;32476;50.002;11.854;2024-01-30T11:20:22;5.30;99.90
46730;DHT22;32476;50.002;11.854;2024-01-30T11:22:56;5.30;99.90
46730;DHT22;32476;50.002;11.854;2024-01-30T11:25:24;5.40;99.90
46730;DHT22;32476;50.002;11.854;2024-01-30T11:27:52;5.50;99.90
46730;DHT22;32476;50.002;11.854;2024-01-30T11:30:31;5.50;99.90
46730;DHT22;32476;50.002;11.854;2024-01-30T11:33:10;5.50;99.90
46730;DHT22;32476;50.002;11.854;2024-01-30T11:35:41;5.60;99.90
46730;DHT22;32476;50.002;11.854;2024-01-30T11:38:09;5.60;99.90
46730;DHT22;32476;50.002;11.854;2024-01-30T11:40:37;5.60;99.90
46730;DHT22;32476;50.002;11.854;2024-01-30T11:43:06;5.60;99.90
46730;DHT22;32476;50.002;11.854;2024-01-30T11:45:33;5.60;99.90
46730;DHT22;32476;50.002;11.854;2024-01-30T11:48:00;5.60;99.90
46730;DHT22;32476;50.002;11.854;2024-01-30T11:50:31;5.70;99.90
46730;DHT22;32476;50.002;11.854;2024-01-30T11:52:58;5.80;99.90
46730;DHT22;32476;50.002;11.854;2024-01-30T11:55:25;5.90;99.90
46730;DHT22;32476;50.002;11.854;2024-01-30T11:57:57;6.00;99.90
46730;DHT22;32476;50.002;11.854;2024-01-30T12:00:24;5.90;99.90
46730;DHT22;32476;50.002;11.854;2024-01-30T12:02:52;5.90;99.90
46730;DHT22;32476;50.002;11.854;2024-01-30T12:05:23;6.00;99.90
46730;DHT22;32476;50.002;11.854;2024-01-30T12:07:50;6.00;99.90
46730;DHT22;32476;50.002;11.854;2024-01-30T12:10:16;6.00;99.90
46730;DHT22;32476;50.002;11.854;2024-01-30T12:12:47;6.00;99.90
46730;DHT22;32476;50.002;11.854;2024-01-30T12:15:16;5.90;99.90
46730;DHT22;32476;50.002;11.854;2024-01-30T12:17:43;5.90;99.90
46730;DHT22;32476;50.002;11.854;2024-01-30T12:20:15;5.90;99.90
46730;DHT22;32476;50.002;11.854;2024-01-30T12:22:44;6.00;99.90
46730;DHT22;32476;50.002;11.854;2024-01-30T12:25:18;6.00;99.90
46730;DHT22;32476;50.002;11.854;2024-01-30T12:27:47;6.10;99.90
46730;DHT22;32476;50.002;11.854;2024-01-30T12:30:20;6.10;99.90
46730;DHT22;32476;50.002;11.854;2024-01-30T12:32:47;6.20;99.90
46730;DHT22;32476;50.002;11.854;2024-01-30T12:35:17;6.30;99.90
46730;DHT22;32476;50.002;11.854;2024-01-30T12:37:46;6.40;99.90
46730;DHT22;32476;50.002;11.854;2024-01-30T12:40:16;6.50;99.90
46730;DHT22;32476;50.002;11.854;2024-01-30T12:42:43;6.60;99.90
46730;DHT22;32476;50.002;11.854;2024-01-30T12:45:16;6.60;99.90
46730;DHT22;32476;50.002;11.854;2024-01-30T12:47:45;6.80;99.90
46730;DHT22;32476;50.002;11.854;2024-01-30T12:50:11;6.80;99.90
46730;DHT22;32476;50.002;11.854;2024-01-30T12:52:39;6.90;99.90
46730;DHT22;32476;50.002;11.854;2024-01-30T12:55:05;7.00;99.90
46730;DHT22;32476;50.002;11.854;2024-01-30T12:57:31;7.10;99.90
46730;DHT22;32476;50.002;11.854;2024-01-30T12:59:59;7.10;99.90
46730;DHT22;32476;50.002;11.854;2024-01-30T13:02:25;7.20;99.90
46730;DHT22;32476;50.002;11.854;2024-01-30T13:04:52;7.20;99.90
46730;DHT22;32476;50.002;11.854;2024-01-30T13:07:19;7.20;99.90
46730;DHT22;32476;50.002;11.854;2024-01-30T13:09:46;7.20;99.90
46730;DHT22;32476;50.002;11.854;2024-01-30T13:12:13;7.20;99.90
46730;DHT22;32476;50.002;11.854;2024-01-30T13:14:40;7.10;99.90
46730;DHT22;32476;50.002;11.854;2024-01-30T13:17:06;7.20;99.90
46730;DHT22;32476;50.002;11.854;2024-01-30T13:19:32;7.20;99.90
46730;DHT22;32476;50.002;11.854;2024-01-30T13:22:00;7.20;99.90
46730;DHT22;32476;50.002;11.854;2024-01-30T13:24:26;7.30;99.90
46730;DHT22;32476;50.002;11.854;2024-01-30T13:26:52;7.40;99.90
46730;DHT22;32476;50.002;11.854;2024-01-30T13:29:20;7.50;99.90
46730;DHT22;32476;50.002;11.854;2024-01-30T13:31:46;7.60;99.90
46730;DHT22;32476;50.002;11.854;2024-01-30T13:34:12;7.60;99.90
46730;DHT22;32476;50.002;11.854;2024-01-30T13:36:41;7.70;99.90
46730;DHT22;32476;50.002;11.854;2024-01-30T13:39:07;7.70;99.90
46730;DHT22;32476;50.002;11.854;2024-01-30T13:41:36;7.80;99.90
46730;DHT22;32476;50.002;11.854;2024-01-30T13:44:04;7.80;99.90
46730;DHT22;32476;50.002;11.854;2024-01-30T13:46:31;7.80;99.90
46730;DHT22;32476;50.002;11.854;2024-01-30T13:48:57;7.80;99.90
46730;DHT22;32476;50.002;11.854;2024-01-30T13:51:25;7.80;99.90
46730;DHT22;32476;50.002;11.854;2024-01-30T13:53:51;7.90;99.90
46730;DHT22;32476;50.002;11.854;2024-01-30T13:56:17;7.90;99.90
46730;DHT22;32476;50.002;11.854;2024-01-30T13:58:45;7.90;99.90
46730;DHT22;32476;50.002;11.854;2024-01-30T14:01:11;7.90;99.90
46730;DHT22;32476;50.002;11.854;2024-01-30T14:03:37;7.80;99.90
46730;DHT22;32476;50.002;11.854;2024-01-30T14:06:05;7.80;99.90
46730;DHT22;32476;50.002;11.854;2024-01-30T14:08:32;7.80;99.90
46730;DHT22;32476;50.002;11.854;2024-01-30T14:10:58;7.80;99.90
46730;DHT22;32476;50.002;11.854;2024-01-30T14:13:25;7.80;99.90
46730;DHT22;32476;50.002;11.854;2024-01-30T14:15:52;7.70;99.90
46730;DHT22;32476;50.002;11.854;2024-01-30T14:18:18;7.70;99.90
46730;DHT22;32476;50.002;11.854;2024-01-30T14:20:46;7.70;99.90
46730;DHT22;32476;50.002;11.854;2024-01-30T14:23:12;7.60;99.90
46730;DHT22;32476;50.002;11.854;2024-01-30T14:25:38;7.60;99.90
46730;DHT22;32476;50.002;11.854;2024-01-30T14:28:06;7.50;99.90
46730;DHT22;32476;50.002;11.854;2024-01-30T14:30:32;7.50;99.90
46730;DHT22;32476;50.002;11.854;2024-01-30T14:32:58;7.40;99.90
46730;DHT22;32476;50.002;11.854;2024-01-30T14:35:25;7.40;99.90
46730;DHT22;32476;50.002;11.854;2024-01-30T14:37:51;7.30;99.90
46730;DHT22;32476;50.002;11.854;2024-01-30T14:40:18;7.30;99.90
46730;DHT22;32476;50.002;11.854;2024-01-30T14:42:45;7.30;99.90
46730;DHT22;32476;50.002;11.854;2024-01-30T14:45:12;7.20;99.90
46730;DHT22;32476;50.002;11.854;2024-01-30T14:47:38;7.10;99.90
46730;DHT22;32476;50.002;11.854;2024-01-30T14:50:06;7.10;99.90
46730;DHT22;32476;50.002;11.854;2024-01-30T14:52:33;7.00;99.90
46730;DHT22;32476;50.002;11.854;2024-01-30T14:55:00;7.00;99.90
46730;DHT22;32476;50.002;11.854;2024-01-30T14:57:27;6.90;99.90
46730;DHT22;32476;50.002;11.854;2024-01-30T14:59:54;6.90;99.90
46730;DHT22;32476;50.002;11.854;2024-01-30T15:02:20;6.80;99.90
46730;DHT22;32476;50.002;11.854;2024-01-30T15:04:47;6.80;99.90
46730;DHT22;32476;50.002;11.854;2024-01-30T15:07:13;6.70;99.90
46730;DHT22;32476;50.002;11.854;2024-01-30T15:09:39;6.60;99.90
46730;DHT22;32476;50.002;11.854;2024-01-30T15:12:07;6.60;99.90
46730;DHT22;32476;50.002;11.854;2024-01-30T15:14:33;6.50;99.90
46730;DHT22;32476;50.002;11.854;2024-01-30T15:16:59;6.50;99.90
46730;DHT22;32476;50.002;11.854;2024-01-30T15:19:27;6.40;99.90
46730;DHT22;32476;50.002;11.854;2024-01-30T15:21:53;6.40;99.90